sensor_id;sensor_type;location;lat;lon;timestamp;pressure;altitude;pressure_sealevel;temperature;humidity
20825;BME280;10573;50.936;6.978;2023-05-08T00:02:13;101577.34;;;18.26;76.16
20825;BME280;10573;50.936;6.978;2023-05-08T00:04:39;101576.69;;;18.24;75.91
20825;BME280;10573;50.936;6.978;2023-05-08T00:07:04;101576.34;;;18.10;76.20
20825;BME280;10573;50.936;6.978;2023-05-08T00:09:30;101576.53;;;18.17;76.22
20825;BME280;10573;50.936;6.978;2023-05-08T00:11:55;101576.00;;;18.14;76.14
20825;BME280;10573;50.936;6.978;2023-05-08T00:14:20;101590.97;;;18.27;76.05
20825;BME280;10573;50.936;6.978;2023-05-08T00:16:46;101587.38;;;18.19;75.99
20825;BME280;10573;50.936;6.978;2023-05-08T00:19:11;101593.56;;;18.21;76.18
20825;BME280;10573;50.936;6.978;2023-05-08T00:21:37;101590.13;;;18.27;76.02
20825;BME280;10573;50.936;6.978;2023-05-08T00:24:03;101591.47;;;18.31;75.84
20825;BME280;10573;50.936;6.978;2023-05-08T00:26:28;101597.66;;;18.41;75.07
20825;BME280;10573;50.936;6.978;2023-05-08T00:28:54;101598.31;;;18.52;74.69
20825;BME280;10573;50.936;6.978;2023-05-08T00:31:19;101591.09;;;18.51;74.30
20825;BME280;10573;50.936;6.978;2023-05-08T00:33:44;101590.03;;;18.60;73.90
20825;BME280;10573;50.936;6.978;2023-05-08T00:36:10;101594.88;;;18.50;73.91
20825;BME280;10573;50.936;6.978;2023-05-08T00:38:36;101590.41;;;18.49;73.80
20825;BME280;10573;50.936;6.978;2023-05-08T00:41:02;101593.16;;;18.49;73.27
20825;BME280;10573;50.936;6.978;2023-05-08T00:43:27;101591.09;;;18.51;73.29
20825;BME280;10573;50.936;6.978;2023-05-08T00:45:59;101596.66;;;18.42;73.43
20825;BME280;10573;50.936;6.978;2023-05-08T00:48:29;101606.66;;;18.27;74.38
20825;BME280;10573;50.936;6.978;2023-05-08T00:50:55;101601.47;;;18.32;74.29
20825;BME280;10573;50.936;6.978;2023-05-08T00:53:21;101610.81;;;18.23;74.07
20825;BME280;10573;50.936;6.978;2023-05-08T00:55:50;101607.16;;;18.39;73.58
20825;BME280;10573;50.936;6.978;2023-05-08T00:58:16;101605.81;;;18.26;73.67
20825;BME280;10573;50.936;6.978;2023-05-08T01:00:43;101605.47;;;18.21;73.91
20825;BME280;10573;50.936;6.978;2023-05-08T01:03:11;101605.47;;;18.21;73.25
20825;BME280;10573;50.936;6.978;2023-05-08T01:05:37;101604.94;;;18.18;73.34
20825;BME280;10573;50.936;6.978;2023-05-08T01:08:02;101604.25;;;18.24;73.59
20825;BME280;10573;50.936;6.978;2023-05-08T01:10:43;101604.97;;;18.09;73.91
20825;BME280;10573;50.936;6.978;2023-05-08T01:13:19;101597.91;;;17.99;73.81
20825;BME280;10573;50.936;6.978;2023-05-08T01:15:51;101589.63;;;18.07;73.50
20825;BME280;10573;50.936;6.978;2023-05-08T01:18:22;101594.28;;;18.06;73.45
20825;BME280;10573;50.936;6.978;2023-05-08T01:21:14;101599.28;;;17.86;73.93
20825;BME280;10573;50.936;6.978;2023-05-08T01:37:59;101608.78;;;17.92;72.71
20825;BME280;10573;50.936;6.978;2023-05-08T01:40:44;101601.00;;;18.04;72.84
20825;BME280;10573;50.936;6.978;2023-05-08T01:45:47;101605.28;;;17.90;73.48
20825;BME280;10573;50.936;6.978;2023-05-08T01:48:23;101613.59;;;17.98;73.20
20825;BME280;10573;50.936;6.978;2023-05-08T01:50:55;101610.50;;;17.93;72.79
20825;BME280;10573;50.936;6.978;2023-05-08T01:53:26;101616.88;;;17.93;72.48
20825;BME280;10573;50.936;6.978;2023-05-08T01:55:57;101621.88;;;18.06;72.41
20825;BME280;10573;50.936;6.978;2023-05-08T01:58:24;101624.44;;;17.91;72.44
20825;BME280;10573;50.936;6.978;2023-05-08T02:00:51;101627.69;;;17.87;72.86
20825;BME280;10573;50.936;6.978;2023-05-08T02:03:18;101622.91;;;18.05;72.29
20825;BME280;10573;50.936;6.978;2023-05-08T02:05:47;101628.06;;;18.00;72.60
20825;BME280;10573;50.936;6.978;2023-05-08T02:08:16;101629.25;;;17.81;72.57
20825;BME280;10573;50.936;6.978;2023-05-08T02:10:44;101636.97;;;17.69;72.91
20825;BME280;10573;50.936;6.978;2023-05-08T02:13:11;101631.81;;;17.83;72.54
20825;BME280;10573;50.936;6.978;2023-05-08T02:15:38;101624.97;;;17.95;72.19
20825;BME280;10573;50.936;6.978;2023-05-08T02:18:07;101631.81;;;17.83;71.90
20825;BME280;10573;50.936;6.978;2023-05-08T02:20:33;101633.88;;;17.81;71.93
20825;BME280;10573;50.936;6.978;2023-05-08T02:22:59;101637.66;;;17.63;71.94
20825;BME280;10573;50.936;6.978;2023-05-08T02:25:28;101633.38;;;17.77;71.66
20825;BME280;10573;50.936;6.978;2023-05-08T02:27:55;101631.81;;;17.83;71.53
20825;BME280;10573;50.936;6.978;2023-05-08T02:30:23;101636.97;;;17.69;72.15
20825;BME280;10573;50.936;6.978;2023-05-08T02:32:51;101629.41;;;17.88;71.48
20825;BME280;10573;50.936;6.978;2023-05-08T02:35:19;101634.22;;;17.86;71.74
20825;BME280;10573;50.936;6.978;2023-05-08T02:37:48;101633.69;;;17.57;72.26
20825;BME280;10573;50.936;6.978;2023-05-08T02:40:16;101630.75;;;17.59;71.94
20825;BME280;10573;50.936;6.978;2023-05-08T02:42:42;101633.19;;;17.54;72.08
20825;BME280;10573;50.936;6.978;2023-05-08T02:45:09;101638.50;;;17.47;72.56
20825;BME280;10573;50.936;6.978;2023-05-08T02:47:45;101636.97;;;17.53;72.30
20825;BME280;10573;50.936;6.978;2023-05-08T02:51:09;101643.50;;;17.60;72.30
20825;BME280;10573;50.936;6.978;2023-05-08T02:54:25;101647.81;;;17.54;72.13
20825;BME280;10573;50.936;6.978;2023-05-08T02:56:55;101645.53;;;17.50;72.26
20825;BME280;10573;50.936;6.978;2023-05-08T02:59:27;101641.75;;;17.42;72.99
20825;BME280;10573;50.936;6.978;2023-05-08T03:02:11;101645.22;;;17.53;72.71
20825;BME280;10573;50.936;6.978;2023-05-08T03:04:44;101650.41;;;17.72;72.22
20825;BME280;10573;50.936;6.978;2023-05-08T03:07:11;101641.78;;;17.51;72.77
20825;BME280;10573;50.936;6.978;2023-05-08T03:09:46;101643.09;;;17.30;73.62
20825;BME280;10573;50.936;6.978;2023-05-08T03:12:21;101642.78;;;17.41;73.18
20825;BME280;10573;50.936;6.978;2023-05-08T03:14:56;101633.31;;;17.52;72.55
20825;BME280;10573;50.936;6.978;2023-05-08T03:17:27;101634.88;;;17.47;73.06
20825;BME280;10573;50.936;6.978;2023-05-08T03:19:57;101633.16;;;17.45;72.60
20825;BME280;10573;50.936;6.978;2023-05-08T03:22:27;101633.16;;;17.45;72.89
20825;BME280;10573;50.936;6.978;2023-05-08T03:24:54;101629.16;;;17.32;73.17
20825;BME280;10573;50.936;6.978;2023-05-08T03:27:21;101638.31;;;17.40;72.93
20825;BME280;10573;50.936;6.978;2023-05-08T03:29:47;101644.53;;;17.51;73.49
20825;BME280;10573;50.936;6.978;2023-05-08T03:32:16;101643.84;;;17.57;72.73
20825;BME280;10573;50.936;6.978;2023-05-08T03:34:41;101644.88;;;17.64;72.60
20825;BME280;10573;50.936;6.978;2023-05-08T03:37:07;101649.34;;;17.40;73.65
20825;BME280;10573;50.936;6.978;2023-05-08T03:39:33;101645.91;;;17.47;73.81
20825;BME280;10573;50.936;6.978;2023-05-08T03:41:58;101644.53;;;17.51;72.90
20825;BME280;10573;50.936;6.978;2023-05-08T03:44:24;101635.59;;;17.49;73.03
20825;BME280;10573;50.936;6.978;2023-05-08T03:46:54;101639.66;;;17.36;73.84
20825;BME280;10573;50.936;6.978;2023-05-08T03:49:22;101643.66;;;17.42;73.26
20825;BME280;10573;50.936;6.978;2023-05-08T03:51:50;101640.31;;;17.14;74.42
20825;BME280;10573;50.936;6.978;2023-05-08T03:54:15;101641.19;;;17.22;74.14
20825;BME280;10573;50.936;6.978;2023-05-08T03:56:40;101638.97;;;17.34;74.05
20825;BME280;10573;50.936;6.978;2023-05-08T03:59:15;101638.44;;;17.22;73.85
20825;BME280;10573;50.936;6.978;2023-05-08T04:01:53;101629.13;;;17.15;73.55
20825;BME280;10573;50.936;6.978;2023-05-08T04:04:29;101635.69;;;17.22;73.24
20825;BME280;10573;50.936;6.978;2023-05-08T04:09:54;101628.44;;;17.21;73.58
20825;BME280;10573;50.936;6.978;2023-05-08T04:12:28;101640.44;;;17.12;73.62
20825;BME280;10573;50.936;6.978;2023-05-08T04:15:02;101638.25;;;17.24;73.72
20825;BME280;10573;50.936;6.978;2023-05-08T04:17:38;101645.97;;;17.12;73.62
20825;BME280;10573;50.936;6.978;2023-05-08T04:20:06;101644.13;;;17.21;73.84
20825;BME280;10573;50.936;6.978;2023-05-08T04:22:34;101639.34;;;17.31;73.46
20825;BME280;10573;50.936;6.978;2023-05-08T04:25:02;101640.34;;;17.30;73.46
20825;BME280;10573;50.936;6.978;2023-05-08T04:27:31;101643.97;;;17.31;73.32
20825;BME280;10573;50.936;6.978;2023-05-08T04:29:57;101653.94;;;17.23;73.83
20825;BME280;10573;50.936;6.978;2023-05-08T04:32:23;101652.38;;;17.21;73.57
20825;BME280;10573;50.936;6.978;2023-05-08T04:34:48;101656.88;;;17.30;73.66
20825;BME280;10573;50.936;6.978;2023-05-08T04:37:23;101657.56;;;17.32;73.42
20825;BME280;10573;50.936;6.978;2023-05-08T04:39:50;101657.84;;;17.13;73.08
20825;BME280;10573;50.936;6.978;2023-05-08T04:42:15;101650.59;;;17.03;73.54
20825;BME280;10573;50.936;6.978;2023-05-08T04:44:41;101649.06;;;17.17;73.34
20825;BME280;10573;50.936;6.978;2023-05-08T04:47:06;101653.75;;;17.17;72.89
20825;BME280;10573;50.936;6.978;2023-05-08T04:49:32;101659.78;;;17.20;72.94
20825;BME280;10573;50.936;6.978;2023-05-08T04:51:57;101656.47;;;17.08;72.63
20825;BME280;10573;50.936;6.978;2023-05-08T04:54:22;101665.19;;;17.04;73.06
20825;BME280;10573;50.936;6.978;2023-05-08T04:56:48;101665.41;;;17.10;72.93
20825;BME280;10573;50.936;6.978;2023-05-08T04:59:13;101660.44;;;17.14;72.86
20825;BME280;10573;50.936;6.978;2023-05-08T05:01:38;101668.91;;;17.21;72.62
20825;BME280;10573;50.936;6.978;2023-05-08T05:04:04;101668.19;;;17.19;71.91
20825;BME280;10573;50.936;6.978;2023-05-08T05:06:29;101672.88;;;17.26;71.69
20825;BME280;10573;50.936;6.978;2023-05-08T05:08:55;101675.63;;;17.26;71.29
20825;BME280;10573;50.936;6.978;2023-05-08T05:11:20;101674.53;;;17.11;71.10
20825;BME280;10573;50.936;6.978;2023-05-08T05:13:47;101674.78;;;17.34;70.83
20825;BME280;10573;50.936;6.978;2023-05-08T05:16:12;101675.44;;;17.28;70.59
20825;BME280;10573;50.936;6.978;2023-05-08T05:18:37;101683.81;;;17.10;70.81
20825;BME280;10573;50.936;6.978;2023-05-08T05:21:03;101687.44;;;17.10;70.73
20825;BME280;10573;50.936;6.978;2023-05-08T05:23:28;101689.16;;;17.11;70.85
20825;BME280;10573;50.936;6.978;2023-05-08T05:25:53;101685.63;;;16.93;71.50
20825;BME280;10573;50.936;6.978;2023-05-08T05:28:19;101694.66;;;17.11;71.60
20825;BME280;10573;50.936;6.978;2023-05-08T05:30:47;101683.69;;;17.20;71.17
20825;BME280;10573;50.936;6.978;2023-05-08T05:33:13;101689.94;;;17.30;70.39
20825;BME280;10573;50.936;6.978;2023-05-08T05:35:38;101695.38;;;17.14;70.95
20825;BME280;10573;50.936;6.978;2023-05-08T05:38:04;101689.03;;;17.21;71.26
20825;BME280;10573;50.936;6.978;2023-05-08T05:40:29;101696.16;;;16.98;71.69
20825;BME280;10573;50.936;6.978;2023-05-08T05:42:55;101694.34;;;17.15;71.43
20825;BME280;10573;50.936;6.978;2023-05-08T05:45:20;101690.34;;;17.09;71.27
20825;BME280;10573;50.936;6.978;2023-05-08T05:47:47;101700.47;;;17.00;72.19
20825;BME280;10573;50.936;6.978;2023-05-08T05:50:17;101705.00;;;17.09;71.49
20825;BME280;10573;50.936;6.978;2023-05-08T05:52:43;101709.94;;;16.98;71.69
20825;BME280;10573;50.936;6.978;2023-05-08T05:55:08;101722.16;;;17.03;71.71
20825;BME280;10573;50.936;6.978;2023-05-08T05:57:34;101710.38;;;17.19;71.81
20825;BME280;10573;50.936;6.978;2023-05-08T05:59:59;101716.88;;;17.10;71.89
20825;BME280;10573;50.936;6.978;2023-05-08T06:02:25;101706.09;;;17.25;71.51
20825;BME280;10573;50.936;6.978;2023-05-08T06:04:51;101715.13;;;17.52;70.98
20825;BME280;10573;50.936;6.978;2023-05-08T06:07:16;101717.53;;;17.55;70.88
20825;BME280;10573;50.936;6.978;2023-05-08T06:09:42;101710.72;;;17.67;70.72
20825;BME280;10573;50.936;6.978;2023-05-08T06:12:07;101712.38;;;17.52;70.98
20825;BME280;10573;50.936;6.978;2023-05-08T06:14:33;101715.16;;;17.60;71.10
20825;BME280;10573;50.936;6.978;2023-05-08T06:16:58;101717.34;;;17.48;70.56
20825;BME280;10573;50.936;6.978;2023-05-08T06:19:24;101722.06;;;17.64;70.12
20825;BME280;10573;50.936;6.978;2023-05-08T06:21:50;101732.56;;;17.60;69.78
20825;BME280;10573;50.936;6.978;2023-05-08T06:24:16;101728.88;;;17.43;70.49
20825;BME280;10573;50.936;6.978;2023-05-08T06:26:41;101725.53;;;17.74;69.65
20825;BME280;10573;50.936;6.978;2023-05-08T06:29:07;101725.00;;;17.71;69.41
20825;BME280;10573;50.936;6.978;2023-05-08T06:31:32;101729.69;;;17.78;69.46
20825;BME280;10573;50.936;6.978;2023-05-08T06:33:58;101723.69;;;17.91;69.14
20825;BME280;10573;50.936;6.978;2023-05-08T06:36:23;101730.09;;;18.00;68.84
20825;BME280;10573;50.936;6.978;2023-05-08T06:38:48;101726.56;;;17.90;69.49
20825;BME280;10573;50.936;6.978;2023-05-08T06:41:14;101723.91;;;18.06;69.07
20825;BME280;10573;50.936;6.978;2023-05-08T06:43:39;101721.41;;;17.87;69.21
20825;BME280;10573;50.936;6.978;2023-05-08T06:46:05;101727.63;;;17.89;69.99
20825;BME280;10573;50.936;6.978;2023-05-08T06:48:30;101725.28;;;18.02;69.49
20825;BME280;10573;50.936;6.978;2023-05-08T06:50:55;101724.06;;;18.13;68.38
20825;BME280;10573;50.936;6.978;2023-05-08T06:53:21;101726.31;;;18.18;68.07
20825;BME280;10573;50.936;6.978;2023-05-08T06:55:46;101726.31;;;18.01;68.24
20825;BME280;10573;50.936;6.978;2023-05-08T06:58:12;101724.84;;;17.81;68.68
20825;BME280;10573;50.936;6.978;2023-05-08T07:00:37;101717.94;;;17.68;69.29
20825;BME280;10573;50.936;6.978;2023-05-08T07:03:02;101715.88;;;17.70;68.80
20825;BME280;10573;50.936;6.978;2023-05-08T07:05:28;101716.13;;;17.93;68.78
20825;BME280;10573;50.936;6.978;2023-05-08T07:07:53;101710.72;;;17.75;68.89
20825;BME280;10573;50.936;6.978;2023-05-08T07:10:22;101710.38;;;17.70;69.09
20825;BME280;10573;50.936;6.978;2023-05-08T07:12:48;101714.69;;;17.81;68.46
20825;BME280;10573;50.936;6.978;2023-05-08T07:15:14;101722.06;;;17.81;69.00
20825;BME280;10573;50.936;6.978;2023-05-08T07:17:39;101724.00;;;17.88;68.84
20825;BME280;10573;50.936;6.978;2023-05-08T07:20:06;101732.09;;;17.82;69.21
20825;BME280;10573;50.936;6.978;2023-05-08T07:22:32;101725.72;;;17.89;68.87
20825;BME280;10573;50.936;6.978;2023-05-08T07:24:57;101722.66;;;18.01;68.17
20825;BME280;10573;50.936;6.978;2023-05-08T07:27:22;101730.78;;;18.35;67.91
20825;BME280;10573;50.936;6.978;2023-05-08T07:29:48;101734.56;;;18.34;67.36
20825;BME280;10573;50.936;6.978;2023-05-08T07:32:13;101739.75;;;18.13;67.75
20825;BME280;10573;50.936;6.978;2023-05-08T07:34:39;101741.47;;;18.38;67.79
20825;BME280;10573;50.936;6.978;2023-05-08T07:37:05;101737.31;;;18.75;66.73
20825;BME280;10573;50.936;6.978;2023-05-08T07:39:31;101737.69;;;18.64;66.54
20825;BME280;10573;50.936;6.978;2023-05-08T07:41:56;101741.09;;;18.74;65.51
20825;BME280;10573;50.936;6.978;2023-05-08T07:44:22;101728.28;;;19.06;64.98
20825;BME280;10573;50.936;6.978;2023-05-08T07:46:47;101733.31;;;18.86;65.33
20825;BME280;10573;50.936;6.978;2023-05-08T07:49:13;101739.69;;;19.03;65.22
20825;BME280;10573;50.936;6.978;2023-05-08T07:51:38;101738.31;;;19.47;63.93
20825;BME280;10573;50.936;6.978;2023-05-08T07:54:04;101739.38;;;19.77;63.72
20825;BME280;10573;50.936;6.978;2023-05-08T07:56:30;101739.38;;;19.77;61.62
20825;BME280;10573;50.936;6.978;2023-05-08T07:58:55;101739.41;;;19.69;60.79
20825;BME280;10573;50.936;6.978;2023-05-08T08:01:20;101743.63;;;19.57;60.90
20825;BME280;10573;50.936;6.978;2023-05-08T08:03:46;101744.94;;;19.69;60.55
20825;BME280;10573;50.936;6.978;2023-05-08T08:06:12;101748.19;;;19.81;60.27
20825;BME280;10573;50.936;6.978;2023-05-08T08:08:38;101753.38;;;19.44;60.77
20825;BME280;10573;50.936;6.978;2023-05-08T08:11:04;101754.41;;;19.43;60.53
20825;BME280;10573;50.936;6.978;2023-05-08T08:13:30;101759.00;;;19.11;62.21
20825;BME280;10573;50.936;6.978;2023-05-08T08:15:55;101755.00;;;19.62;59.90
20825;BME280;10573;50.936;6.978;2023-05-08T08:18:21;101750.47;;;19.69;60.13
20825;BME280;10573;50.936;6.978;2023-05-08T08:20:46;101750.97;;;20.04;59.20
20825;BME280;10573;50.936;6.978;2023-05-08T08:23:12;101756.28;;;20.37;57.95
20825;BME280;10573;50.936;6.978;2023-05-08T08:25:37;101757.38;;;20.66;58.05
20825;BME280;10573;50.936;6.978;2023-05-08T08:28:03;101760.09;;;20.74;57.00
20825;BME280;10573;50.936;6.978;2023-05-08T08:30:28;101745.44;;;20.89;57.36
20825;BME280;10573;50.936;6.978;2023-05-08T08:32:54;101752.19;;;20.71;57.48
20825;BME280;10573;50.936;6.978;2023-05-08T08:35:19;101753.13;;;20.40;58.13
20825;BME280;10573;50.936;6.978;2023-05-08T08:37:44;101749.56;;;20.55;58.01
20825;BME280;10573;50.936;6.978;2023-05-08T08:40:10;101746.56;;;20.79;56.87
20825;BME280;10573;50.936;6.978;2023-05-08T08:42:36;101746.75;;;20.78;56.85
20825;BME280;10573;50.936;6.978;2023-05-08T08:45:01;101748.78;;;20.61;57.14
20825;BME280;10573;50.936;6.978;2023-05-08T08:47:28;101739.88;;;20.74;57.24
20825;BME280;10573;50.936;6.978;2023-05-08T08:50:00;101740.84;;;20.58;57.21
20825;BME280;10573;50.936;6.978;2023-05-08T08:52:36;101739.41;;;20.85;56.65
20825;BME280;10573;50.936;6.978;2023-05-08T08:55:06;101738.94;;;20.82;57.46
20825;BME280;10573;50.936;6.978;2023-05-08T08:57:35;101739.00;;;20.73;57.93
20825;BME280;10573;50.936;6.978;2023-05-08T09:00:03;101737.50;;;21.01;57.02
20825;BME280;10573;50.936;6.978;2023-05-08T09:02:30;101734.63;;;21.24;56.55
20825;BME280;10573;50.936;6.978;2023-05-08T09:04:56;101745.13;;;21.13;57.62
20825;BME280;10573;50.936;6.978;2023-05-08T09:07:22;101739.13;;;21.10;56.97
20825;BME280;10573;50.936;6.978;2023-05-08T09:09:48;101743.81;;;21.09;56.46
20825;BME280;10573;50.936;6.978;2023-05-08T09:12:14;101746.03;;;20.99;56.52
20825;BME280;10573;50.936;6.978;2023-05-08T09:14:40;101755.31;;;20.68;57.12
20825;BME280;10573;50.936;6.978;2023-05-08T09:17:06;101755.66;;;20.65;57.60
20825;BME280;10573;50.936;6.978;2023-05-08T09:19:32;101753.97;;;20.64;57.94
20825;BME280;10573;50.936;6.978;2023-05-08T09:21:58;101751.19;;;20.64;57.94
20825;BME280;10573;50.936;6.978;2023-05-08T09:24:25;101744.59;;;20.65;58.50
20825;BME280;10573;50.936;6.978;2023-05-08T09:26:52;101756.41;;;20.97;58.06
20825;BME280;10573;50.936;6.978;2023-05-08T09:29:20;101740.66;;;21.12;57.04
20825;BME280;10573;50.936;6.978;2023-05-08T09:31:50;101745.81;;;20.86;58.44
20825;BME280;10573;50.936;6.978;2023-05-08T09:34:29;101750.88;;;20.82;58.31
20825;BME280;10573;50.936;6.978;2023-05-08T09:37:15;101753.72;;;20.74;58.45
20825;BME280;10573;50.936;6.978;2023-05-08T09:39:41;101746.25;;;20.74;58.12
20825;BME280;10573;50.936;6.978;2023-05-08T09:42:08;101754.28;;;20.46;58.81
20825;BME280;10573;50.936;6.978;2023-05-08T09:44:44;101749.75;;;20.30;59.52
20825;BME280;10573;50.936;6.978;2023-05-08T09:47:15;101750.06;;;20.35;59.56
20825;BME280;10573;50.936;6.978;2023-05-08T09:49:58;101757.91;;;20.00;60.09
20825;BME280;10573;50.936;6.978;2023-05-08T09:52:23;101755.09;;;20.08;59.54
20825;BME280;10573;50.936;6.978;2023-05-08T09:54:56;101764.34;;;20.24;59.51
20825;BME280;10573;50.936;6.978;2023-05-08T09:57:23;101757.66;;;20.10;60.00
20825;BME280;10573;50.936;6.978;2023-05-08T09:59:48;101758.91;;;20.07;60.16
20825;BME280;10573;50.936;6.978;2023-05-08T10:02:14;101763.97;;;20.04;60.23
20825;BME280;10573;50.936;6.978;2023-05-08T10:04:44;101759.28;;;20.04;60.87
20825;BME280;10573;50.936;6.978;2023-05-08T10:07:10;101763.69;;;19.90;60.43
20825;BME280;10573;50.936;6.978;2023-05-08T10:09:35;101760.03;;;20.21;60.09
20825;BME280;10573;50.936;6.978;2023-05-08T10:12:00;101759.53;;;20.18;60.03
20825;BME280;10573;50.936;6.978;2023-05-08T10:14:26;101758.63;;;20.02;59.85
20825;BME280;10573;50.936;6.978;2023-05-08T10:16:52;101756.94;;;19.93;60.68
20825;BME280;10573;50.936;6.978;2023-05-08T10:19:20;101750.84;;;19.66;61.26
20825;BME280;10573;50.936;6.978;2023-05-08T10:21:47;101756.81;;;19.47;62.39
20825;BME280;10573;50.936;6.978;2023-05-08T10:24:18;101758.50;;;19.56;62.13
20825;BME280;10573;50.936;6.978;2023-05-08T10:27:00;101749.94;;;19.34;62.83
20825;BME280;10573;50.936;6.978;2023-05-08T10:29:37;101746.72;;;19.54;62.76
20825;BME280;10573;50.936;6.978;2023-05-08T10:32:08;101742.03;;;19.31;62.85
20825;BME280;10573;50.936;6.978;2023-05-08T10:34:38;101750.75;;;19.43;62.56
20825;BME280;10573;50.936;6.978;2023-05-08T10:37:09;101756.28;;;19.43;62.35
20825;BME280;10573;50.936;6.978;2023-05-08T10:39:36;101745.47;;;19.33;62.30
20825;BME280;10573;50.936;6.978;2023-05-08T10:42:01;101737.09;;;19.50;62.09
20825;BME280;10573;50.936;6.978;2023-05-08T10:44:27;101734.41;;;19.33;62.21
20825;BME280;10573;50.936;6.978;2023-05-08T10:53:06;101728.78;;;19.58;61.97
20825;BME280;10573;50.936;6.978;2023-05-08T10:55:32;101730.84;;;19.24;62.38
20825;BME280;10573;50.936;6.978;2023-05-08T10:58:12;101734.25;;;19.66;62.12
20825;BME280;10573;50.936;6.978;2023-05-08T11:03:17;101739.41;;;19.69;61.53
20825;BME280;10573;50.936;6.978;2023-05-08T11:05:47;101741.19;;;19.93;61.38
20825;BME280;10573;50.936;6.978;2023-05-08T11:08:14;101745.59;;;19.79;60.83
20825;BME280;10573;50.936;6.978;2023-05-08T11:10:42;101751.63;;;19.83;61.09
20825;BME280;10573;50.936;6.978;2023-05-08T11:13:10;101744.56;;;19.72;61.71
20825;BME280;10573;50.936;6.978;2023-05-08T11:15:39;101736.84;;;19.68;61.70
20825;BME280;10573;50.936;6.978;2023-05-08T11:18:08;101738.50;;;19.85;61.46
20825;BME280;10573;50.936;6.978;2023-05-08T11:20:38;101742.31;;;19.44;62.60
20825;BME280;10573;50.936;6.978;2023-05-08T11:23:23;101733.88;;;19.69;62.07
20825;BME280;10573;50.936;6.978;2023-05-08T11:25:58;101736.41;;;19.79;61.96
20825;BME280;10573;50.936;6.978;2023-05-08T11:28:25;101739.03;;;19.81;61.80
20825;BME280;10573;50.936;6.978;2023-05-08T11:30:53;101729.72;;;19.73;61.85
20825;BME280;10573;50.936;6.978;2023-05-08T11:33:21;101734.19;;;19.43;62.85
20825;BME280;10573;50.936;6.978;2023-05-08T11:38:17;101732.66;;;19.72;62.29
20825;BME280;10573;50.936;6.978;2023-05-08T11:46:05;101721.72;;;19.78;63.02
20825;BME280;10573;50.936;6.978;2023-05-08T11:48:33;101715.75;;;19.98;61.49
20825;BME280;10573;50.936;6.978;2023-05-08T11:50:59;101717.53;;;19.91;61.54
20825;BME280;10573;50.936;6.978;2023-05-08T11:53:25;101713.06;;;20.13;60.66
20825;BME280;10573;50.936;6.978;2023-05-08T11:55:53;101722.63;;;20.25;60.17
20825;BME280;10573;50.936;6.978;2023-05-08T11:58:19;101721.25;;;20.06;60.98
20825;BME280;10573;50.936;6.978;2023-05-08T12:00:45;101723.78;;;20.31;60.79
20825;BME280;10573;50.936;6.978;2023-05-08T12:03:18;101719.06;;;20.93;59.63
20825;BME280;10573;50.936;6.978;2023-05-08T12:05:45;101726.31;;;20.56;60.06
20825;BME280;10573;50.936;6.978;2023-05-08T12:08:12;101721.56;;;20.50;60.58
20825;BME280;10573;50.936;6.978;2023-05-08T12:10:39;101725.28;;;20.57;60.80
20825;BME280;10573;50.936;6.978;2023-05-08T12:13:17;101713.91;;;20.90;59.78
20825;BME280;10573;50.936;6.978;2023-05-08T12:15:47;101716.88;;;21.03;59.51
20825;BME280;10573;50.936;6.978;2023-05-08T12:18:14;101700.88;;;21.50;57.72
20825;BME280;10573;50.936;6.978;2023-05-08T12:20:40;101706.84;;;22.05;56.37
20825;BME280;10573;50.936;6.978;2023-05-08T12:23:05;101708.16;;;22.09;56.03
20825;BME280;10573;50.936;6.978;2023-05-08T12:25:31;101703.25;;;21.90;55.67
20825;BME280;10573;50.936;6.978;2023-05-08T12:27:57;101704.31;;;22.10;55.51
20825;BME280;10573;50.936;6.978;2023-05-08T12:30:24;101710.69;;;22.54;54.07
20825;BME280;10573;50.936;6.978;2023-05-08T12:32:50;101709.59;;;22.77;53.53
20825;BME280;10573;50.936;6.978;2023-05-08T12:35:15;101711.44;;;22.20;54.48
20825;BME280;10573;50.936;6.978;2023-05-08T12:37:41;101698.50;;;23.67;52.88
20825;BME280;10573;50.936;6.978;2023-05-08T12:40:18;101693.75;;;25.28;48.80
20825;BME280;10573;50.936;6.978;2023-05-08T12:42:48;101687.94;;;24.58;48.10
20825;BME280;10573;50.936;6.978;2023-05-08T12:45:18;101698.19;;;24.37;49.18
20825;BME280;10573;50.936;6.978;2023-05-08T12:47:48;101695.50;;;23.62;50.77
20825;BME280;10573;50.936;6.978;2023-05-08T12:50:15;101684.31;;;23.07;52.23
20825;BME280;10573;50.936;6.978;2023-05-08T12:52:42;101678.78;;;22.72;53.09
20825;BME280;10573;50.936;6.978;2023-05-08T12:55:28;101681.84;;;22.27;54.95
20825;BME280;10573;50.936;6.978;2023-05-08T12:58:08;101676.94;;;22.07;55.52
20825;BME280;10573;50.936;6.978;2023-05-08T13:00:43;101671.28;;;21.94;55.52
20825;BME280;10573;50.936;6.978;2023-05-08T13:03:29;101675.69;;;21.88;55.80
20825;BME280;10573;50.936;6.978;2023-05-08T13:05:56;101674.88;;;21.36;57.40
20825;BME280;10573;50.936;6.978;2023-05-08T13:10:55;101671.03;;;21.01;58.11
20825;BME280;10573;50.936;6.978;2023-05-08T13:13:22;101677.59;;;20.85;58.88
20825;BME280;10573;50.936;6.978;2023-05-08T13:15:48;101670.69;;;20.51;59.28
20825;BME280;10573;50.936;6.978;2023-05-08T13:18:15;101664.03;;;20.60;58.89
20825;BME280;10573;50.936;6.978;2023-05-08T13:20:41;101670.09;;;20.40;59.83
20825;BME280;10573;50.936;6.978;2023-05-08T13:23:07;101675.78;;;20.24;60.34
20825;BME280;10573;50.936;6.978;2023-05-08T13:25:32;101660.84;;;20.33;59.80
20825;BME280;10573;50.936;6.978;2023-05-08T13:27:58;101653.59;;;20.47;60.26
20825;BME280;10573;50.936;6.978;2023-05-08T13:30:24;101655.78;;;20.52;60.52
20825;BME280;10573;50.936;6.978;2023-05-08T13:32:51;101648.25;;;20.45;60.81
20825;BME280;10573;50.936;6.978;2023-05-08T13:35:17;101648.53;;;20.51;60.22